Time;durP1;ratioP1;P1;durP2;ratioP2;P2;SDS_P1;SDS_P2;PMS_P1;PMS_P2;Temp;Humidity;BMP_temperature;BMP_pressure;BME280_temperature;BME280_humidity;BME280_pressure;Samples;Min_cycle;Max_cycle;Signal;HPM_P1;HPM_P2
2023/10/08 00:01:35;;;;;;;0.77;0.57;;;14.20;99.90;;;;;;5094531;28;20036;-47
2023/10/08 00:04:04;;;;;;;1.75;0.52;;;14.10;99.90;;;;;;5094576;28;20398;-52
2023/10/08 00:06:30;;;;;;;1.13;0.40;;;14.00;99.90;;;;;;5094410;28;20044;-47
2023/10/08 00:08:59;;;;;;;1.33;0.40;;;13.90;99.90;;;;;;5094183;28;20504;-50
2023/10/08 00:11:26;;;;;;;2.80;0.50;;;13.80;99.90;;;;;;5093947;28;20040;-48
2023/10/08 00:13:56;;;;;;;2.72;0.55;;;13.80;99.90;;;;;;5094168;28;20032;-50
2023/10/08 00:16:22;;;;;;;0.73;0.43;;;13.80;99.90;;;;;;5094405;28;20044;-54
2023/10/08 00:18:50;;;;;;;1.58;0.60;;;13.80;99.90;;;;;;5094008;28;20393;-49
2023/10/08 00:21:26;;;;;;;1.90;0.50;;;13.80;99.90;;;;;;5093714;28;20059;-48
2023/10/08 00:23:52;;;;;;;0.70;0.30;;;13.90;99.90;;;;;;5093861;28;20047;-47
2023/10/08 00:26:27;;;;;;;1.48;0.40;;;13.90;99.90;;;;;;5093734;28;20385;-50
2023/10/08 00:28:55;;;;;;;1.88;0.52;;;13.90;99.90;;;;;;5093843;28;20080;-48
2023/10/08 00:31:25;;;;;;;2.33;0.38;;;13.90;99.90;;;;;;5093683;28;20051;-49
2023/10/08 00:33:51;;;;;;;6.63;0.38;;;13.80;99.90;;;;;;5093582;28;20032;-51
2023/10/08 00:36:20;;;;;;;2.63;0.40;;;13.80;99.90;;;;;;5093638;28;20086;-48
2023/10/08 00:38:52;;;;;;;2.85;0.40;;;13.80;99.90;;;;;;5093506;28;20366;-51
2023/10/08 00:41:28;;;;;;;1.52;0.60;;;13.90;99.90;;;;;;5093576;28;20123;-52
2023/10/08 00:44:00;;;;;;;3.28;0.85;;;13.80;99.90;;;;;;5075753;28;20035;-51
2023/10/08 00:46:35;;;;;;;1.13;0.32;;;13.90;99.90;;;;;;5093492;28;20073;-50
2023/10/08 00:51:47;;;;;;;1.23;0.40;;;13.80;99.90;;;;;;5093362;28;20452;-51
2023/10/08 00:54:18;;;;;;;5.95;0.52;;;13.80;99.90;;;;;;5075003;28;20039;-52
2023/10/08 00:59:21;;;;;;;1.17;0.43;;;13.80;99.90;;;;;;5093091;28;20051;-50
2023/10/08 01:01:51;;;;;;;3.22;0.50;;;13.80;99.90;;;;;;5093417;28;20460;-50
2023/10/08 01:04:26;;;;;;;1.90;0.40;;;13.80;99.90;;;;;;5093192;28;20044;-51
2023/10/08 01:06:59;;;;;;;5.72;0.68;;;13.90;99.90;;;;;;5093103;28;20143;-49
2023/10/08 01:09:35;;;;;;;2.67;0.50;;;13.80;99.90;;;;;;5092928;28;20047;-52
2023/10/08 01:12:26;;;;;;;4.05;0.73;;;13.80;99.90;;;;;;5092988;28;20115;-50
2023/10/08 01:15:04;;;;;;;1.55;0.75;;;13.80;99.90;;;;;;5092973;28;20123;-51
2023/10/08 01:17:32;;;;;;;5.57;0.85;;;13.80;99.90;;;;;;5093106;28;20040;-52
2023/10/08 01:20:33;;;;;;;2.97;0.77;;;13.80;99.90;;;;;;5092837;28;20046;-48
2023/10/08 01:22:57;;;;;;;2.85;0.88;;;13.80;99.90;;;;;;5092303;28;20485;-49
2023/10/08 01:25:24;;;;;;;6.47;1.02;;;13.80;99.90;;;;;;5092660;28;20058;-50
2023/10/08 01:27:55;;;;;;;4.10;0.77;;;13.80;99.90;;;;;;5092481;28;20048;-51
2023/10/08 01:30:21;;;;;;;5.00;1.00;;;13.90;99.90;;;;;;5092584;28;20032;-51
2023/10/08 01:32:47;;;;;;;5.93;0.90;;;13.90;99.90;;;;;;5092501;28;20393;-48
2023/10/08 01:35:31;;;;;;;3.00;0.70;;;13.90;99.90;;;;;;5092664;28;20040;-51
2023/10/08 01:37:59;;;;;;;3.90;1.17;;;13.80;99.90;;;;;;5092493;28;20048;-52
2023/10/08 01:40:25;;;;;;;4.20;0.98;;;13.80;99.90;;;;;;5092401;28;20069;-50
2023/10/08 01:42:51;;;;;;;7.40;1.42;;;13.80;99.90;;;;;;5092220;28;20097;-50
2023/10/08 01:45:18;;;;;;;8.50;1.30;;;13.90;99.90;;;;;;5074103;28;20036;-48
2023/10/08 01:47:45;;;;;;;5.13;1.65;;;13.80;99.90;;;;;;5092260;28;20036;-50
2023/10/08 01:50:29;;;;;;;4.40;1.17;;;13.80;99.90;;;;;;5092168;28;20032;-49
2023/10/08 01:52:55;;;;;;;6.15;0.90;;;13.90;99.90;;;;;;5092099;28;20031;-50
2023/10/08 01:55:22;;;;;;;3.17;1.00;;;13.90;99.90;;;;;;5092158;28;20482;-47
2023/10/08 01:57:49;;;;;;;3.38;1.05;;;14.00;99.90;;;;;;5091874;28;20444;-49
2023/10/08 02:00:22;;;;;;;8.60;1.30;;;13.90;99.90;;;;;;5092022;28;20035;-50
2023/10/08 02:02:51;;;;;;;2.25;1.30;;;14.00;99.90;;;;;;5092076;28;20042;-46
2023/10/08 02:05:18;;;;;;;2.25;0.73;;;13.90;99.90;;;;;;5091859;28;20200;-47
2023/10/08 02:07:48;;;;;;;4.65;0.90;;;14.00;99.90;;;;;;5091733;28;20040;-47
2023/10/08 02:10:14;;;;;;;3.38;1.00;;;13.90;99.90;;;;;;5091919;28;20089;-50
2023/10/08 02:12:43;;;;;;;3.72;0.88;;;13.90;99.90;;;;;;5091731;28;20481;-48
2023/10/08 02:15:11;;;;;;;7.07;1.00;;;13.90;99.90;;;;;;5092023;28;20036;-47
2023/10/08 02:17:38;;;;;;;3.03;0.70;;;13.90;99.90;;;;;;5091924;28;20093;-51
2023/10/08 02:20:05;;;;;;;4.70;0.93;;;13.90;99.90;;;;;;5091849;28;20039;-48
2023/10/08 02:22:32;;;;;;;4.07;0.80;;;13.90;99.90;;;;;;5092085;28;20079;-48
2023/10/08 02:25:01;;;;;;;3.97;0.95;;;13.90;99.90;;;;;;5091694;28;20071;-47
2023/10/08 02:27:28;;;;;;;4.65;1.00;;;13.90;99.90;;;;;;5091619;28;20052;-48
2023/10/08 02:29:54;;;;;;;6.72;1.10;;;13.80;99.90;;;;;;5091523;28;20051;-51
2023/10/08 02:32:22;;;;;;;6.45;1.00;;;13.80;99.90;;;;;;5091594;28;20066;-51
2023/10/08 02:34:49;;;;;;;1.20;0.70;;;13.80;99.90;;;;;;5091595;28;20047;-48
2023/10/08 02:37:16;;;;;;;6.40;1.10;;;13.80;99.90;;;;;;5091593;28;20111;-48
2023/10/08 02:39:42;;;;;;;3.97;1.08;;;13.80;99.90;;;;;;5091610;28;20048;-51
2023/10/08 02:42:10;;;;;;;9.80;1.00;;;13.80;99.90;;;;;;5091772;28;20050;-51
2023/10/08 02:44:41;;;;;;;4.50;1.30;;;13.80;99.90;;;;;;5091563;28;20040;-49
2023/10/08 02:47:11;;;;;;;4.72;0.60;;;13.80;99.90;;;;;;5091595;28;20393;-51
2023/10/08 02:49:40;;;;;;;10.48;1.65;;;13.80;99.90;;;;;;5091533;28;20048;-49
2023/10/08 02:52:08;;;;;;;5.70;1.15;;;13.80;99.90;;;;;;5091251;28;20047;-50
2023/10/08 02:54:36;;;;;;;5.97;1.20;;;13.70;99.90;;;;;;5091623;28;20039;-49
2023/10/08 02:57:04;;;;;;;4.67;1.40;;;13.80;99.90;;;;;;5089740;28;20046;-51
2023/10/08 02:59:39;;;;;;;5.88;1.20;;;13.80;99.90;;;;;;5087221;28;20386;-49
2023/10/08 03:02:42;;;;;;;5.65;1.00;;;13.80;99.90;;;;;;5091222;28;20090;-50
2023/10/08 03:05:00;;;;;;;4.07;1.10;;;13.70;99.90;;;;;;5088091;28;20080;-48
2023/10/08 03:07:32;;;;;;;5.40;1.00;;;13.70;99.90;;;;;;5091458;28;20572;-52
2023/10/08 03:10:06;;;;;;;5.63;1.30;;;13.70;99.90;;;;;;5091442;28;20123;-51
2023/10/08 03:12:33;;;;;;;2.95;0.93;;;13.70;99.90;;;;;;5093485;28;20059;-50
2023/10/08 03:15:12;;;;;;;3.83;1.27;;;13.70;99.90;;;;;;5094961;28;20040;-48
2023/10/08 03:17:39;;;;;;;8.60;1.27;;;13.60;99.90;;;;;;5095243;28;20047;-49
2023/10/08 03:20:29;;;;;;;5.13;0.98;;;13.60;99.90;;;;;;5095220;28;20055;-48
2023/10/08 03:22:51;;;;;;;6.22;1.30;;;13.60;99.90;;;;;;5094857;28;20486;-50
2023/10/08 03:25:19;;;;;;;3.17;1.20;;;13.60;99.90;;;;;;5094868;28;20047;-48
2023/10/08 03:27:45;;;;;;;8.73;1.10;;;13.70;99.90;;;;;;5094961;28;20052;-49
2023/10/08 03:30:14;;;;;;;4.72;0.98;;;13.70;99.90;;;;;;5060126;28;20039;-51
2023/10/08 03:32:42;;;;;;;;;;;13.60;99.90;;;;;;5095242;28;20028;-48
2023/10/08 03:35:11;;;;;;;3.88;1.00;;;13.60;99.90;;;;;;5094906;28;19961;-48
2023/10/08 03:37:45;;;;;;;3.40;0.98;;;13.60;99.90;;;;;;5094490;28;20051;-47
2023/10/08 03:40:42;;;;;;;6.75;1.42;;;13.50;99.90;;;;;;5095061;28;20036;-46
2023/10/08 03:43:52;;;;;;;6.13;1.30;;;13.60;99.90;;;;;;5094545;28;20040;-48
2023/10/08 03:45:59;;;;;;;4.63;0.83;;;13.60;99.90;;;;;;5080763;28;20552;-46
2023/10/08 03:48:25;;;;;;;3.25;1.13;;;13.70;99.90;;;;;;5094658;28;20262;-47
2023/10/08 03:51:06;;;;;;;5.70;1.45;;;13.70;99.90;;;;;;5094683;28;20036;-46
2023/10/08 03:53:37;;;;;;;3.08;1.02;;;13.70;99.90;;;;;;5080745;28;20067;-46
2023/10/08 03:56:06;;;;;;;6.40;0.93;;;13.70;99.90;;;;;;5094639;28;20071;-48
2023/10/08 03:58:37;;;;;;;4.35;0.88;;;13.80;99.90;;;;;;5094230;28;20044;-47
2023/10/08 04:01:09;;;;;;;6.63;1.23;;;13.70;99.90;;;;;;5094326;28;20084;-47
2023/10/08 04:06:22;;;;;;;3.85;1.05;;;13.60;99.90;;;;;;5094183;28;20547;-47
2023/10/08 04:11:36;;;;;;;3.25;1.05;;;13.60;99.90;;;;;;5094331;28;20063;-48
2023/10/08 04:14:02;;;;;;;3.97;0.70;;;13.60;99.90;;;;;;5080267;28;20064;-48
2023/10/08 04:16:36;;;;;;;5.78;1.20;;;13.60;99.90;;;;;;5094095;28;20051;-48
2023/10/08 04:19:03;;;;;;;7.22;0.90;;;13.70;99.90;;;;;;5093745;28;20038;-47
2023/10/08 04:21:29;;;;;;;2.67;0.85;;;13.70;99.90;;;;;;5093916;28;20112;-50
2023/10/08 04:23:57;;;;;;;8.32;1.23;;;13.60;99.90;;;;;;5092474;28;20032;-48
2023/10/08 04:26:24;;;;;;;7.10;1.05;;;13.60;99.90;;;;;;5097013;28;20092;-50
2023/10/08 04:28:54;;;;;;;5.88;1.15;;;13.70;99.90;;;;;;5113876;28;20559;-49
2023/10/08 04:31:24;;;;;;;4.28;1.00;;;13.60;99.90;;;;;;5114320;28;20050;-51
2023/10/08 04:33:50;;;;;;;2.60;0.85;;;13.70;99.90;;;;;;5114237;28;20507;-48
2023/10/08 04:36:19;;;;;;;4.53;1.10;;;13.70;99.90;;;;;;5114579;28;20043;-48
2023/10/08 04:38:47;;;;;;;;;;;13.70;99.90;;;;;;5114893;28;20039;-47
2023/10/08 04:41:20;;;;;;;3.85;0.70;;;13.60;99.90;;;;;;5114148;28;19919;-47
2023/10/08 04:43:49;;;;;;;6.85;1.17;;;13.60;99.90;;;;;;5114024;28;20044;-48
2023/10/08 04:49:04;;;;;;;6.25;1.40;;;13.70;99.90;;;;;;5114078;28;20078;-48
2023/10/08 04:51:35;;;;;;;3.85;1.42;;;13.70;99.90;;;;;;5113630;28;20027;-48
2023/10/08 04:54:04;;;;;;;6.88;1.40;;;13.80;99.90;;;;;;5113890;28;20151;-48
2023/10/08 04:56:33;;;;;;;10.20;1.15;;;13.70;99.90;;;;;;5113433;28;20058;-46
2023/10/08 04:58:58;;;;;;;4.60;1.48;;;13.70;99.90;;;;;;5113658;28;20171;-47
2023/10/08 05:04:23;;;;;;;8.95;1.10;;;13.70;99.90;;;;;;5113633;28;20051;-52
2023/10/08 05:07:00;;;;;;;9.85;1.50;;;13.60;99.90;;;;;;5113604;28;20078;-48
2023/10/08 05:09:38;;;;;;;4.95;1.30;;;13.70;99.90;;;;;;5113365;28;20058;-48
2023/10/08 05:12:30;;;;;;;6.55;1.20;;;13.50;99.90;;;;;;5113433;28;20031;-49
2023/10/08 05:15:17;;;;;;;5.97;1.48;;;13.60;99.90;;;;;;5113287;28;20543;-47
2023/10/08 05:17:57;;;;;;;7.80;1.52;;;13.60;99.90;;;;;;5112972;28;20051;-49
2023/10/08 05:23:53;;;;;;;5.90;1.35;;;13.60;99.90;;;;;;5113135;28;20047;-46
2023/10/08 05:29:01;;;;;;;12.90;2.00;;;13.50;99.90;;;;;;5113277;28;20420;-48
2023/10/08 05:31:47;;;;;;;7.75;1.70;;;13.60;99.90;;;;;;5112762;28;20144;-50
2023/10/08 05:34:32;;;;;;;7.35;1.27;;;13.50;99.90;;;;;;5112486;28;20067;-47
2023/10/08 05:39:32;;;;;;;8.70;1.30;;;13.50;99.90;;;;;;5112819;28;20047;-47
2023/10/08 05:42:13;;;;;;;8.32;1.60;;;13.50;99.90;;;;;;5112568;28;20405;-47
2023/10/08 05:45:13;;;;;;;5.68;1.60;;;13.50;99.90;;;;;;5112631;28;20043;-46
2023/10/08 05:53:01;;;;;;;14.73;2.10;;;13.50;99.90;;;;;;5112618;28;20038;-48
2023/10/08 05:55:35;;;;;;;6.40;1.50;;;13.50;99.90;;;;;;5112633;28;20070;-48
2023/10/08 06:01:01;;;;;;;9.95;1.60;;;13.40;99.90;;;;;;5112414;28;20078;-47
2023/10/08 06:03:36;;;;;;;7.55;1.73;;;13.40;99.90;;;;;;5112586;28;20044;-46
2023/10/08 06:17:23;;;;;;;8.07;2.47;;;13.40;99.90;;;;;;5064431;28;20054;-47
2023/10/08 06:19:50;;;;;;;4.93;1.58;;;13.40;99.90;;;;;;5112209;28;20043;-47
2023/10/08 06:22:16;;;;;;;9.10;1.60;;;13.40;99.90;;;;;;5111893;28;20119;-48
2023/10/08 06:24:42;;;;;;;7.97;1.58;;;13.40;99.90;;;;;;5111834;28;20122;-48
2023/10/08 06:27:08;;;;;;;7.60;1.38;;;13.30;99.90;;;;;;5102352;28;20052;-46
2023/10/08 06:29:34;;;;;;;19.60;2.40;;;13.40;99.90;;;;;;5091479;28;20040;-49
2023/10/08 06:32:02;;;;;;;5.80;1.65;;;13.40;99.90;;;;;;5091574;28;20047;-48
2023/10/08 06:34:29;;;;;;;10.13;1.90;;;13.40;99.90;;;;;;5091390;28;20036;-48
2023/10/08 06:36:57;;;;;;;7.32;1.58;;;13.50;99.90;;;;;;5091343;28;20150;-47
2023/10/08 06:39:33;;;;;;;9.30;1.88;;;13.40;99.90;;;;;;5091570;28;20533;-50
2023/10/08 06:42:02;;;;;;;11.10;1.83;;;13.40;99.90;;;;;;5091622;28;20035;-46
2023/10/08 06:44:28;;;;;;;6.72;1.48;;;13.50;99.90;;;;;;5091595;28;20048;-47
2023/10/08 06:46:58;;;;;;;10.85;2.15;;;13.50;99.90;;;;;;5092796;28;20044;-50
2023/10/08 06:49:23;;;;;;;7.07;1.90;;;13.50;99.90;;;;;;5095572;28;20051;-52
2023/10/08 06:51:51;;;;;;;12.50;2.15;;;13.50;99.90;;;;;;5095656;28;20028;-51
2023/10/08 06:54:18;;;;;;;9.18;1.58;;;13.60;99.90;;;;;;5095802;28;20028;-49
2023/10/08 06:56:51;;;;;;;4.55;1.30;;;13.60;99.90;;;;;;5095613;28;20044;-49
2023/10/08 06:59:17;;;;;;;6.25;1.45;;;13.60;99.90;;;;;;5077391;28;20035;-48
2023/10/08 07:01:47;;;;;;;12.57;2.00;;;13.60;99.90;;;;;;5095580;28;20072;-48
2023/10/08 07:04:13;;;;;;;7.72;1.45;;;13.70;99.90;;;;;;5095178;28;20383;-48
2023/10/08 07:06:43;;;;;;;10.98;1.83;;;13.70;99.90;;;;;;5095350;28;20043;-50
2023/10/08 07:09:22;;;;;;;9.32;1.63;;;13.60;99.90;;;;;;5095404;28;20040;-47
2023/10/08 07:11:54;;;;;;;5.25;1.73;;;13.70;99.90;;;;;;5095253;28;20036;-49
2023/10/08 07:14:27;;;;;;;9.13;1.77;;;13.80;99.90;;;;;;5095222;28;20493;-48
2023/10/08 07:17:00;;;;;;;8.75;1.98;;;13.90;99.90;;;;;;5095060;28;20044;-47
2023/10/08 07:19:37;;;;;;;9.82;1.55;;;13.90;99.90;;;;;;5095389;28;20040;-48
2023/10/08 07:22:17;;;;;;;13.63;1.77;;;14.10;99.90;;;;;;5094979;28;20119;-47
2023/10/08 07:24:45;;;;;;;9.32;1.65;;;14.10;99.90;;;;;;5094908;28;20036;-50
2023/10/08 07:27:11;;;;;;;12.98;2.22;;;14.20;99.90;;;;;;5104833;28;20200;-49
2023/10/08 07:29:37;;;;;;;8.73;1.80;;;14.20;99.90;;;;;;5115397;28;20494;-49
2023/10/08 07:32:12;;;;;;;9.52;2.35;;;14.20;99.90;;;;;;5115436;28;20043;-51
2023/10/08 07:34:39;;;;;;;7.45;1.70;;;14.20;99.90;;;;;;5115217;28;20393;-46
2023/10/08 07:37:08;;;;;;;7.97;1.60;;;14.10;99.90;;;;;;5115220;28;20042;-50
2023/10/08 07:39:45;;;;;;;10.40;2.15;;;14.10;99.90;;;;;;5115267;28;20036;-52
2023/10/08 07:42:11;;;;;;;6.63;1.52;;;14.10;99.90;;;;;;5115323;28;20036;-49
2023/10/08 07:44:38;;;;;;;9.68;1.58;;;14.20;99.90;;;;;;5115165;28;20184;-47
2023/10/08 07:47:05;;;;;;;6.13;1.55;;;14.20;99.90;;;;;;5115228;28;20389;-51
2023/10/08 07:49:31;;;;;;;13.73;2.90;;;14.20;99.90;;;;;;5115263;28;20204;-46
2023/10/08 07:51:59;;;;;;;11.68;1.80;;;14.20;99.90;;;;;;5096940;28;20032;-47
2023/10/08 07:54:29;;;;;;;11.23;2.00;;;14.20;99.90;;;;;;5115526;28;20143;-51
2023/10/08 07:57:08;;;;;;;9.77;1.92;;;14.20;99.90;;;;;;5114728;28;20042;-47
2023/10/08 07:59:38;;;;;;;6.28;1.70;;;14.20;99.90;;;;;;5115008;28;20047;-47
2023/10/08 08:02:10;;;;;;;7.35;1.55;;;14.20;99.90;;;;;;5114737;28;20039;-47
2023/10/08 08:04:43;;;;;;;6.30;2.08;;;14.20;99.90;;;;;;5096292;28;20519;-46
2023/10/08 08:07:15;;;;;;;8.48;1.70;;;14.20;99.90;;;;;;5114754;28;20055;-48
2023/10/08 08:09:50;;;;;;;9.48;1.60;;;14.30;99.90;;;;;;5114777;28;20484;-48
2023/10/08 08:12:21;;;;;;;8.48;1.63;;;14.30;99.90;;;;;;5114569;28;20562;-47
2023/10/08 08:14:48;;;;;;;11.48;2.00;;;14.30;99.90;;;;;;5114353;28;20039;-47
2023/10/08 08:17:14;;;;;;;9.43;2.05;;;14.40;99.90;;;;;;5114614;28;20063;-48
2023/10/08 08:19:46;;;;;;;7.72;1.77;;;14.40;99.90;;;;;;5114685;28;20046;-48
2023/10/08 08:22:21;;;;;;;7.88;1.40;;;14.50;99.90;;;;;;5114303;28;20578;-48
2023/10/08 08:24:54;;;;;;;10.02;1.75;;;14.70;99.90;;;;;;5114253;28;20035;-47
2023/10/08 08:27:31;;;;;;;8.90;1.73;;;14.70;99.90;;;;;;5113890;28;20072;-50
2023/10/08 08:30:09;;;;;;;11.15;2.25;;;14.80;99.90;;;;;;5114336;28;20043;-49
2023/10/08 08:32:47;;;;;;;10.40;1.73;;;14.80;99.90;;;;;;5114235;28;20047;-49
2023/10/08 08:35:16;;;;;;;7.68;1.58;;;14.80;99.90;;;;;;5096037;28;20054;-50
2023/10/08 08:37:42;;;;;;;8.13;1.88;;;14.80;99.90;;;;;;5113976;28;20040;-48
2023/10/08 08:40:10;;;;;;;7.47;1.85;;;14.80;99.90;;;;;;5114216;28;20043;-47
2023/10/08 08:42:36;;;;;;;13.75;2.10;;;14.90;99.90;;;;;;5113939;28;20123;-47
2023/10/08 08:45:09;;;;;;;11.48;1.58;;;14.90;99.90;;;;;;5114076;28;20043;-49
2023/10/08 08:47:40;;;;;;;11.63;1.98;;;14.90;99.90;;;;;;5113971;28;20035;-46
2023/10/08 08:50:10;;;;;;;11.35;1.88;;;14.90;99.90;;;;;;5114269;28;20377;-48
2023/10/08 08:52:37;;;;;;;8.95;2.08;;;15.00;99.90;;;;;;5113573;28;20059;-47
2023/10/08 08:55:14;;;;;;;8.90;1.70;;;15.00;99.90;;;;;;5113977;28;20036;-49
2023/10/08 08:57:43;;;;;;;13.85;1.90;;;15.00;99.90;;;;;;5113811;28;20062;-48
2023/10/08 09:00:16;;;;;;;14.05;2.22;;;15.00;99.90;;;;;;5113688;28;20088;-46
2023/10/08 09:02:44;;;;;;;6.53;1.40;;;15.00;99.90;;;;;;5113403;28;20115;-45
2023/10/08 09:05:26;;;;;;;13.70;2.13;;;15.10;99.90;;;;;;5113517;28;20040;-51
2023/10/08 09:07:52;;;;;;;9.93;1.55;;;15.20;99.90;;;;;;5113388;28;20482;-47
2023/10/08 09:10:18;;;;;;;8.48;1.73;;;15.30;99.90;;;;;;5112585;28;20058;-46
2023/10/08 09:12:45;;;;;;;15.07;1.80;;;15.30;99.90;;;;;;5113357;28;20036;-52
2023/10/08 09:15:11;;;;;;;13.85;2.65;;;15.40;99.90;;;;;;5095181;28;20040;-46
2023/10/08 09:17:39;;;;;;;8.90;1.52;;;15.50;99.90;;;;;;5113501;28;20069;-48
2023/10/08 09:20:07;;;;;;;12.02;1.98;;;15.50;99.90;;;;;;5113229;28;20035;-51
2023/10/08 09:22:32;;;;;;;9.45;2.25;;;15.60;99.90;;;;;;5113261;28;20035;-50
2023/10/08 09:25:00;;;;;;;12.95;1.70;;;15.50;99.90;;;;;;5113126;28;20537;-51
2023/10/08 09:27:26;;;;;;;10.13;1.95;;;15.50;99.90;;;;;;5112866;28;20051;-50
2023/10/08 09:29:51;;;;;;;7.68;1.73;;;15.60;99.90;;;;;;5112829;28;20118;-47
2023/10/08 09:32:23;;;;;;;9.15;1.95;;;15.60;99.90;;;;;;5111615;28;20450;-50
2023/10/08 09:34:50;;;;;;;13.27;2.03;;;15.70;99.90;;;;;;5109417;28;20040;-50
2023/10/08 09:37:17;;;;;;;7.68;1.85;;;15.70;99.90;;;;;;5112393;28;20035;-47
2023/10/08 09:39:45;;;;;;;8.20;1.70;;;15.70;99.90;;;;;;5112045;28;20031;-48
2023/10/08 09:42:13;;;;;;;7.47;1.83;;;15.70;99.90;;;;;;5107201;28;20044;-47
2023/10/08 09:44:39;;;;;;;9.88;1.50;;;15.70;99.90;;;;;;5113135;28;20964;-50
2023/10/08 09:47:12;;;;;;;15.43;2.33;;;15.70;99.90;;;;;;5112902;28;20051;-49
2023/10/08 09:50:01;;;;;;;4.82;1.13;;;15.70;99.90;;;;;;5112637;28;20042;-47
2023/10/08 09:52:44;;;;;;;8.77;1.30;;;15.70;99.90;;;;;;5112679;28;20149;-47
2023/10/08 09:55:10;;;;;;;9.13;1.58;;;15.80;99.90;;;;;;5112866;28;20047;-50
2023/10/08 09:57:36;;;;;;;7.82;1.98;;;15.80;99.90;;;;;;5112782;28;20043;-46
2023/10/08 10:00:07;;;;;;;7.93;1.85;;;15.90;99.90;;;;;;5112791;28;20077;-49
2023/10/08 10:02:33;;;;;;;10.02;1.75;;;15.80;99.90;;;;;;5112594;28;20066;-48
2023/10/08 10:05:00;;;;;;;7.22;1.40;;;15.90;99.90;;;;;;5112321;28;20040;-49
2023/10/08 10:07:28;;;;;;;12.55;1.98;;;16.00;99.90;;;;;;5113008;28;20114;-49
2023/10/08 10:09:55;;;;;;;9.98;1.50;;;16.00;99.90;;;;;;5112069;28;20035;-48
2023/10/08 10:12:25;;;;;;;7.55;1.67;;;16.00;99.90;;;;;;5111940;28;20057;-48
2023/10/08 10:14:55;;;;;;;10.10;1.50;;;16.10;99.90;;;;;;5111936;28;20040;-46
2023/10/08 10:17:23;;;;;;;9.45;2.00;;;16.10;99.90;;;;;;5093780;28;20024;-48
2023/10/08 10:19:55;;;;;;;11.10;2.03;;;16.10;99.90;;;;;;5111883;28;20055;-49
2023/10/08 10:22:32;;;;;;;13.43;1.50;;;16.10;99.90;;;;;;5111536;28;20031;-48
2023/10/08 10:25:03;;;;;;;5.70;1.30;;;16.20;99.90;;;;;;5112034;28;20047;-50
2023/10/08 10:27:29;;;;;;;12.02;2.03;;;16.40;99.90;;;;;;5111621;28;20086;-47
2023/10/08 10:30:08;;;;;;;10.85;1.77;;;16.40;99.90;;;;;;5111536;28;20067;-49
2023/10/08 10:32:37;;;;;;;10.97;1.90;;;16.50;99.90;;;;;;5111369;28;20040;-49
2023/10/08 10:35:05;;;;;;;;;;;16.50;99.90;;;;;;5112367;28;20440;-47
2023/10/08 10:37:41;;;;;;;8.15;1.90;;;16.50;99.90;;;;;;5111705;28;19920;-49
2023/10/08 10:40:12;;;;;;;6.63;1.77;;;16.40;99.90;;;;;;5109371;28;20043;-47
2023/10/08 10:42:42;;;;;;;9.32;2.08;;;16.50;99.90;;;;;;5111845;28;20036;-48
2023/10/08 10:48:21;;;;;;;8.13;1.98;;;16.40;99.90;;;;;;5112256;28;20126;-50
2023/10/08 10:51:08;;;;;;;7.97;2.00;;;16.40;99.90;;;;;;5112171;28;20039;-48
2023/10/08 10:53:44;;;;;;;7.28;1.45;;;16.40;99.90;;;;;;5111868;28;20485;-49
2023/10/08 10:56:29;;;;;;;5.65;1.67;;;16.40;99.90;;;;;;5112049;28;20071;-46
2023/10/08 10:59:15;;;;;;;11.90;1.77;;;16.50;99.90;;;;;;5111837;28;20039;-49
2023/10/08 11:01:52;;;;;;;10.55;1.65;;;16.60;99.90;;;;;;5111807;28;20500;-50
2023/10/08 11:04:28;;;;;;;5.88;1.50;;;16.60;99.90;;;;;;5112147;28;20114;-47
2023/10/08 11:06:58;;;;;;;14.68;2.20;;;16.80;99.90;;;;;;5111842;28;20830;-48
2023/10/08 11:09:38;;;;;;;10.35;1.80;;;16.80;99.90;;;;;;5077410;28;20035;-49
2023/10/08 11:12:10;;;;;;;10.90;2.35;;;16.80;99.90;;;;;;5093688;28;20031;-47
2023/10/08 11:14:45;;;;;;;8.80;1.48;;;16.80;99.90;;;;;;5112263;28;20060;-45
2023/10/08 11:17:12;;;;;;;6.90;2.10;;;16.70;99.90;;;;;;5111736;28;20031;-49
2023/10/08 11:19:37;;;;;;;6.80;1.63;;;16.80;99.90;;;;;;5111901;28;20039;-46
2023/10/08 11:22:05;;;;;;;5.15;1.33;;;16.70;99.90;;;;;;5111623;28;20040;-48
2023/10/08 11:24:37;;;;;;;6.47;1.77;;;16.70;99.90;;;;;;5111639;28;20036;-48
2023/10/08 11:27:52;;;;;;;6.25;1.60;;;16.80;99.90;;;;;;5111359;28;20047;-48
2023/10/08 11:29:56;;;;;;;10.63;2.00;;;16.80;99.90;;;;;;5100547;28;20126;-49
2023/10/08 11:32:25;;;;;;;9.20;2.35;;;16.70;99.90;;;;;;5111568;28;20089;-50
2023/10/08 11:35:15;;;;;;;6.68;2.33;;;16.70;99.90;;;;;;5115513;28;20036;-50
2023/10/08 11:37:57;;;;;;;6.85;1.63;;;16.80;99.90;;;;;;5115260;28;20477;-48
2023/10/08 11:41:13;;;;;;;9.48;1.67;;;16.70;99.90;;;;;;5115482;28;20061;-51
2023/10/08 11:43:15;;;;;;;7.50;1.88;;;16.80;99.90;;;;;;5104357;28;20096;-47
2023/10/08 11:45:48;;;;;;;7.90;1.75;;;16.80;99.90;;;;;;5115027;28;20504;-48
2023/10/08 11:48:17;;;;;;;4.28;1.40;;;16.80;99.90;;;;;;5115309;28;20548;-51
2023/10/08 11:50:43;;;;;;;5.30;1.25;;;16.80;99.90;;;;;;5115118;28;20076;-49
2023/10/08 11:53:11;;;;;;;6.10;1.40;;;16.80;99.90;;;;;;5112003;28;20043;-48
2023/10/08 11:55:38;;;;;;;9.30;2.00;;;16.80;99.90;;;;;;5114556;28;20047;-50
2023/10/08 11:58:11;;;;;;;12.45;2.67;;;16.70;99.90;;;;;;5114021;28;20485;-51
2023/10/08 12:00:51;;;;;;;8.80;2.13;;;16.80;99.90;;;;;;5114463;28;20055;-47
2023/10/08 12:03:18;;;;;;;7.40;1.92;;;16.90;99.90;;;;;;5114139;28;20035;-48
2023/10/08 12:05:48;;;;;;;7.15;1.85;;;16.90;99.90;;;;;;5114279;28;20050;-46
2023/10/08 12:08:16;;;;;;;7.43;1.77;;;16.90;99.90;;;;;;5113899;28;20040;-47
2023/10/08 12:10:46;;;;;;;4.97;1.48;;;16.80;99.90;;;;;;5114698;28;20092;-47
2023/10/08 12:13:12;;;;;;;9.18;1.85;;;16.90;99.90;;;;;;5113899;28;20032;-46
2023/10/08 12:15:38;;;;;;;9.63;2.13;;;16.80;99.90;;;;;;5114044;28;20497;-48
2023/10/08 12:18:08;;;;;;;7.40;1.60;;;16.80;99.90;;;;;;5113942;28;20050;-46
2023/10/08 12:20:43;;;;;;;11.45;1.88;;;16.70;99.90;;;;;;5113973;28;20040;-48
2023/10/08 12:23:10;;;;;;;7.80;1.65;;;16.70;99.90;;;;;;5114549;28;20439;-48
2023/10/08 12:25:39;;;;;;;8.75;1.73;;;16.80;99.90;;;;;;5114419;28;20042;-48
2023/10/08 12:28:05;;;;;;;11.05;1.90;;;16.80;99.90;;;;;;5114437;28;20055;-50
2023/10/08 12:30:32;;;;;;;6.45;1.42;;;16.90;99.90;;;;;;5114331;28;20374;-48
2023/10/08 12:32:59;;;;;;;8.20;1.77;;;16.90;99.90;;;;;;5113911;28;20035;-51
2023/10/08 12:35:26;;;;;;;14.07;3.05;;;17.00;99.90;;;;;;5114665;28;20074;-52
2023/10/08 12:37:52;;;;;;;12.15;1.92;;;17.00;99.90;;;;;;5114262;28;20031;-46
2023/10/08 12:40:23;;;;;;;7.95;1.60;;;17.10;99.90;;;;;;5114268;28;20555;-49
2023/10/08 12:42:52;;;;;;;9.25;1.52;;;17.20;99.90;;;;;;5114244;28;20061;-50
2023/10/08 12:45:21;;;;;;;8.70;2.25;;;17.20;99.90;;;;;;5112815;28;20040;-49
2023/10/08 12:47:52;;;;;;;11.95;1.88;;;17.20;99.90;;;;;;5114161;28;20111;-47
2023/10/08 12:50:29;;;;;;;8.38;1.98;;;17.20;99.90;;;;;;5113991;28;20107;-48
2023/10/08 12:52:55;;;;;;;11.15;2.47;;;17.30;99.90;;;;;;5095819;28;20397;-51
2023/10/08 12:55:24;;;;;;;7.85;1.58;;;17.30;99.90;;;;;;5113874;28;20036;-45
2023/10/08 12:57:55;;;;;;;7.68;1.40;;;17.40;99.90;;;;;;5114082;28;20043;-46
2023/10/08 13:00:23;;;;;;;9.50;1.77;;;17.50;99.90;;;;;;5113745;28;20059;-49
2023/10/08 13:02:53;;;;;;;9.48;2.20;;;17.40;99.90;;;;;;5114086;28;20067;-48
2023/10/08 13:05:28;;;;;;;9.65;1.35;;;17.40;99.90;;;;;;5113670;28;20044;-47
2023/10/08 13:07:55;;;;;;;9.95;1.90;;;17.40;99.90;;;;;;5113527;28;20071;-49
2023/10/08 13:10:23;;;;;;;9.20;1.92;;;17.30;99.90;;;;;;5113471;28;20066;-48
2023/10/08 13:12:49;;;;;;;8.70;1.45;;;17.30;99.90;;;;;;5113449;28;20036;-51
2023/10/08 13:15:15;;;;;;;7.63;1.58;;;17.20;99.90;;;;;;5113664;28;20051;-50
2023/10/08 13:17:42;;;;;;;8.38;1.80;;;17.30;99.90;;;;;;5113339;28;20040;-47
2023/10/08 13:20:11;;;;;;;8.07;1.80;;;17.30;99.90;;;;;;5113250;28;20512;-48
2023/10/08 13:22:39;;;;;;;5.85;1.15;;;17.30;99.90;;;;;;5113377;28;20105;-49
2023/10/08 13:25:06;;;;;;;8.68;1.67;;;17.50;99.90;;;;;;5113268;28;20039;-48
2023/10/08 13:27:32;;;;;;;7.97;2.03;;;17.60;99.90;;;;;;5113203;28;20473;-49
2023/10/08 13:29:58;;;;;;;6.43;1.48;;;17.60;99.90;;;;;;5113454;28;20085;-52
2023/10/08 13:32:24;;;;;;;8.82;1.85;;;17.60;99.90;;;;;;5113148;28;20042;-48
2023/10/08 13:34:50;;;;;;;12.93;1.85;;;17.70;99.90;;;;;;5112939;28;20059;-50
2023/10/08 13:37:16;;;;;;;6.38;1.67;;;17.70;99.90;;;;;;5094688;28;20393;-51
2023/10/08 13:39:42;;;;;;;11.80;1.88;;;17.70;99.90;;;;;;5112981;28;20540;-49
2023/10/08 13:42:08;;;;;;;6.35;1.50;;;17.60;99.90;;;;;;5113038;28;20111;-48
2023/10/08 13:44:35;;;;;;;8.23;2.38;;;17.60;99.90;;;;;;5113048;28;20099;-49
2023/10/08 13:47:05;;;;;;;8.15;1.55;;;17.60;99.90;;;;;;5112717;28;20503;-48
2023/10/08 13:49:32;;;;;;;6.85;1.70;;;17.70;99.90;;;;;;5112575;28;20031;-51
2023/10/08 13:51:58;;;;;;;9.65;1.60;;;17.60;99.90;;;;;;5112691;28;20542;-50